In Rescue
 
Open Full Screen Window  High Contrast Mode
Wind Gusting 16 knots
10
August 09, 2020 5:49 PM CDT
Weather Information
Wind Direction
  190 °
Wind Speed
  10 kt (12 mph)
Wind Gust
  16 kt (18 mph)
Altimeter
29.87 in
Visibility
10 SM
Temperature
28° C
82° F
Dewpoint
21° C
70° F
Humidity
66%
1hr Rain Fall
00.00 in.
24hr Rain Fall
00.53 in.
Sky Condition
Clear
VFR

METAR KFKA 092249Z AUTO 19010G16KT 10SM CLR 28/21 A2987 RMK AO2 T02800211

FAA Disclaimer: The data displayed is for advisory purposes only and is not to be used for flight planning or operations.